Time;durP1;ratioP1;P1;durP2;ratioP2;P2;SDS_P1;SDS_P2;PMS_P1;PMS_P2;Temp;Humidity;BMP_temperature;BMP_pressure;BME280_temperature;BME280_humidity;BME280_pressure;Samples;Min_cycle;Max_cycle;Signal;HPM_P1;HPM_P2
2023/09/17 00:02:21;;;;;;;8.90;8.02;;;13.80;99.90;;;;;;4851177;29;20056;-91
2023/09/17 00:04:47;;;;;;;7.95;7.07;;;13.80;99.90;;;;;;4836813;29;20068;-92
2023/09/17 00:07:13;;;;;;;8.77;7.97;;;13.70;99.90;;;;;;4851556;29;20047;-92
2023/09/17 00:09:39;;;;;;;11.30;10.20;;;13.70;99.90;;;;;;4847289;29;20084;-92
2023/09/17 00:12:05;;;;;;;11.73;10.63;;;13.70;99.90;;;;;;4847620;29;20044;-92
2023/09/17 00:14:31;;;;;;;12.35;11.25;;;13.70;99.90;;;;;;4850050;29;20040;-92
2023/09/17 00:16:57;;;;;;;9.10;8.30;;;13.60;99.90;;;;;;4833089;29;20128;-92
2023/09/17 00:19:23;;;;;;;12.18;10.98;;;13.60;99.90;;;;;;4852108;29;20552;-92
2023/09/17 00:21:49;;;;;;;16.48;14.88;;;13.60;99.90;;;;;;4824550;29;20159;-93
2023/09/17 00:24:15;;;;;;;15.65;14.05;;;13.50;99.90;;;;;;4850010;29;20080;-92
2023/09/17 00:26:41;;;;;;;15.93;14.43;;;13.80;99.90;;;;;;4850689;29;20055;-93
2023/09/17 00:29:07;;;;;;;15.50;14.02;;;13.90;99.90;;;;;;4836742;29;20127;-93
2023/09/17 00:31:34;;;;;;;14.98;13.48;;;13.60;99.90;;;;;;4845889;29;20116;-92
2023/09/17 00:34:00;;;;;;;;;;;;;;;;;;4848139;29;20036;-93
2023/09/17 00:36:26;;;;;;;12.32;11.13;;;13.80;99.90;;;;;;4866955;29;19926;-93
2023/09/17 00:38:52;;;;;;;13.55;12.23;;;13.60;99.90;;;;;;4844380;29;20044;-93
2023/09/17 00:41:18;;;;;;;15.15;13.45;;;13.60;99.90;;;;;;4854314;29;20104;-94
2023/09/17 00:43:43;;;;;;;12.50;11.20;;;13.60;99.90;;;;;;4851032;29;20052;-93
2023/09/17 00:46:12;;;;;;;13.77;12.38;;;;;;;;;;4862549;29;20040;-94
2023/09/17 00:48:39;;;;;;;15.43;13.77;;;;;;;;;;4879291;29;20086;-93
2023/09/17 00:51:05;;;;;;;17.03;15.23;;;;;;;;;;4869652;29;20056;-93
2023/09/17 00:53:31;;;;;;;13.70;12.40;;;;;;;;;;4869616;29;20047;-93
2023/09/17 00:55:59;;;;;;;10.52;9.52;;;;;;;;;;4866157;29;20041;-93
2023/09/17 00:58:28;;;;;;;11.52;10.43;;;13.20;99.90;;;;;;4865719;29;20064;-94
2023/09/17 01:00:55;;;;;;;8.80;7.93;;;13.30;99.90;;;;;;4839088;29;20131;-92
2023/09/17 01:03:21;;;;;;;13.18;11.88;;;13.20;99.90;;;;;;4879543;29;20152;-94
2023/09/17 01:05:48;;;;;;;15.40;13.90;;;13.20;99.90;;;;;;4837766;29;20561;-94
2023/09/17 01:08:15;;;;;;;15.35;13.80;;;13.20;99.90;;;;;;4848946;29;20072;-93
2023/09/17 01:10:41;;;;;;;13.15;11.85;;;13.20;99.90;;;;;;4850608;29;20408;-93
2023/09/17 01:13:08;;;;;;;13.30;12.00;;;13.20;99.90;;;;;;4877400;29;20441;-94
2023/09/17 01:15:34;;;;;;;10.40;9.40;;;13.20;99.90;;;;;;4854030;29;20091;-94
2023/09/17 01:18:07;;;;;;;8.85;7.20;;;13.10;99.90;;;;;;4853620;29;20044;-94
2023/09/17 01:20:41;;;;;;;7.53;6.85;;;13.00;99.90;;;;;;4853426;29;20045;-93
2023/09/17 01:23:26;;;;;;;8.63;7.82;;;13.00;99.90;;;;;;4868753;29;20052;-94
2023/09/17 01:25:56;;;;;;;9.73;8.82;;;12.90;99.90;;;;;;4868836;29;20485;-93
2023/09/17 01:28:22;;;;;;;11.88;8.45;;;12.80;99.90;;;;;;4868682;29;20161;-93
2023/09/17 01:30:48;;;;;;;9.93;9.02;;;12.90;99.90;;;;;;4853640;29;20036;-93
2023/09/17 01:33:14;;;;;;;10.13;9.23;;;12.80;99.90;;;;;;4851296;29;20041;-93
2023/09/17 01:35:51;;;;;;;11.90;10.75;;;12.80;99.90;;;;;;4883563;29;20040;-93
2023/09/17 01:38:19;;;;;;;15.32;13.85;;;12.80;99.90;;;;;;4861684;29;20041;-93
2023/09/17 01:40:48;;;;;;;14.10;12.80;;;12.90;99.90;;;;;;4852043;29;20045;-93
2023/09/17 01:43:17;;;;;;;13.20;11.90;;;12.90;99.90;;;;;;4853826;29;20049;-93
2023/09/17 01:45:44;;;;;;;10.10;9.15;;;12.90;99.90;;;;;;4897960;29;20115;-93
2023/09/17 01:48:12;;;;;;;8.57;7.85;;;12.80;99.90;;;;;;4881383;29;20067;-93
2023/09/17 01:50:39;;;;;;;8.23;7.50;;;12.80;99.90;;;;;;4868591;29;20067;-93
2023/09/17 01:53:05;;;;;;;9.35;8.48;;;12.70;99.90;;;;;;4851024;29;20144;-93
2023/09/17 01:55:30;;;;;;;12.43;11.23;;;12.60;99.90;;;;;;4867734;29;20127;-93
2023/09/17 01:57:56;;;;;;;12.48;11.32;;;12.60;99.90;;;;;;4852078;29;20040;-93
2023/09/17 02:00:22;;;;;;;12.25;11.07;;;12.60;99.90;;;;;;4841494;29;20095;-93
2023/09/17 02:02:49;;;;;;;11.18;10.15;;;12.70;99.90;;;;;;4853011;29;20092;-94
2023/09/17 02:05:16;;;;;;;12.20;11.00;;;12.60;99.90;;;;;;4852216;29;20060;-94
2023/09/17 02:07:43;;;;;;;13.95;12.65;;;12.60;99.90;;;;;;4865852;29;20052;-93
2023/09/17 02:10:09;;;;;;;15.43;13.85;;;12.70;99.90;;;;;;4868574;29;20056;-93
2023/09/17 02:12:35;;;;;;;14.52;13.00;;;12.70;99.90;;;;;;4850143;29;20132;-93
2023/09/17 02:15:01;;;;;;;13.20;12.00;;;12.80;99.90;;;;;;4853547;29;20080;-93
2023/09/17 02:17:26;;;;;;;14.60;13.20;;;12.80;99.90;;;;;;4836267;29;20072;-93
2023/09/17 02:19:52;;;;;;;15.18;13.57;;;12.80;99.90;;;;;;4834002;29;20135;-93
2023/09/17 02:22:18;;;;;;;14.20;12.85;;;12.80;99.90;;;;;;4856934;29;20048;-93
2023/09/17 02:24:46;;;;;;;13.43;12.07;;;12.80;99.90;;;;;;4871063;29;20048;-93
2023/09/17 02:27:13;;;;;;;12.73;11.40;;;12.80;99.90;;;;;;4862476;29;20524;-93
2023/09/17 02:29:39;;;;;;;;;;;12.70;99.90;;;;;;4833893;29;20052;-94
2023/09/17 02:32:06;;;;;;;12.27;10.98;;;12.70;99.90;;;;;;4864417;29;19920;-93
2023/09/17 02:34:31;;;;;;;12.43;11.13;;;12.60;99.90;;;;;;4878154;29;20051;-93
2023/09/17 02:36:57;;;;;;;11.07;9.88;;;12.60;99.90;;;;;;4833755;29;20442;-93
2023/09/17 02:39:23;;;;;;;15.40;11.80;;;12.60;99.90;;;;;;4880927;29;20180;-92
2023/09/17 02:41:49;;;;;;;11.63;10.52;;;12.60;99.90;;;;;;4853120;29;20037;-93
2023/09/17 02:44:14;;;;;;;12.23;10.82;;;12.60;99.90;;;;;;4835172;29;20080;-94
2023/09/17 02:46:40;;;;;;;12.57;11.38;;;12.60;99.90;;;;;;4844115;29;20120;-93
2023/09/17 02:49:06;;;;;;;15.57;14.02;;;12.70;99.90;;;;;;4865152;29;20084;-93
2023/09/17 02:51:32;;;;;;;13.45;12.05;;;12.70;99.90;;;;;;4865480;29;20109;-93
2023/09/17 02:53:58;;;;;;;13.48;11.85;;;12.80;99.90;;;;;;4850986;29;20044;-92
2023/09/17 02:56:25;;;;;;;15.70;13.07;;;12.80;99.90;;;;;;4850168;29;20043;-93
2023/09/17 02:58:50;;;;;;;14.23;12.75;;;12.80;99.90;;;;;;4854407;29;20123;-93
2023/09/17 03:01:19;;;;;;;14.93;13.48;;;12.80;99.90;;;;;;4852520;29;20132;-92
2023/09/17 03:03:46;;;;;;;18.02;16.13;;;12.90;99.90;;;;;;4851705;29;20080;-92
2023/09/17 03:06:12;;;;;;;14.68;12.88;;;12.90;99.90;;;;;;4851659;29;20508;-93
2023/09/17 03:08:42;;;;;;;18.20;15.82;;;12.90;99.90;;;;;;4867168;29;20135;-93
2023/09/17 03:11:13;;;;;;;17.17;15.38;;;12.90;99.90;;;;;;4845928;29;20063;-93
2023/09/17 03:13:44;;;;;;;19.77;17.70;;;12.90;99.90;;;;;;4842208;29;20072;-92
2023/09/17 03:16:12;;;;;;;21.15;19.02;;;13.00;99.90;;;;;;4850821;29;20079;-93
2023/09/17 03:18:39;;;;;;;24.63;20.05;;;13.10;99.90;;;;;;4813017;29;20093;-92
2023/09/17 03:21:08;;;;;;;22.33;20.10;;;13.10;99.90;;;;;;4830210;29;20046;-91
2023/09/17 03:23:34;;;;;;;22.15;19.83;;;13.20;99.90;;;;;;4819458;29;20478;-92
2023/09/17 03:26:01;;;;;;;21.55;19.25;;;13.20;99.90;;;;;;4839118;29;20033;-92
2023/09/17 03:28:27;;;;;;;21.77;19.50;;;13.30;99.90;;;;;;4860612;29;20053;-93
2023/09/17 03:30:53;;;;;;;21.87;19.70;;;13.30;99.90;;;;;;4851731;29;20040;-93
2023/09/17 03:33:19;;;;;;;21.67;19.08;;;13.30;99.90;;;;;;4845772;29;20192;-92
2023/09/17 03:35:46;;;;;;;20.73;16.30;;;13.30;99.90;;;;;;4832397;29;20108;-92
2023/09/17 03:38:12;;;;;;;21.10;18.53;;;13.30;99.90;;;;;;4843984;29;20124;-92
2023/09/17 03:40:39;;;;;;;20.73;17.63;;;13.30;99.90;;;;;;4851232;29;20041;-95
2023/09/17 03:43:10;;;;;;;19.67;16.88;;;13.30;99.90;;;;;;4834873;29;20080;-95
2023/09/17 03:45:36;;;;;;;18.83;16.92;;;13.40;99.90;;;;;;4818988;29;20048;-95
2023/09/17 03:48:04;;;;;;;18.65;16.75;;;13.40;99.90;;;;;;4833529;29;20053;-94
2023/09/17 03:50:32;;;;;;;17.98;16.17;;;;;;;;;;4833457;29;20067;-95
2023/09/17 03:53:02;;;;;;;17.95;15.98;;;13.50;99.90;;;;;;4833843;29;20041;-94
2023/09/17 03:55:28;;;;;;;18.77;16.92;;;13.50;99.90;;;;;;4848783;29;20097;-95
2023/09/17 03:57:55;;;;;;;19.45;17.35;;;13.60;99.90;;;;;;4848403;29;20093;-95
2023/09/17 04:00:23;;;;;;;20.77;18.63;;;13.70;99.90;;;;;;4848790;29;20475;-95
2023/09/17 04:02:49;;;;;;;;;;;13.70;99.90;;;;;;4818795;29;20045;-95
2023/09/17 04:05:16;;;;;;;18.35;14.02;;;13.70;99.90;;;;;;4838221;29;19924;-95
2023/09/17 04:07:44;;;;;;;21.75;18.65;;;13.80;99.90;;;;;;4867124;29;20512;-95
2023/09/17 04:10:11;;;;;;;20.30;16.95;;;13.80;99.90;;;;;;4866789;29;20044;-95
2023/09/17 04:12:38;;;;;;;18.75;16.92;;;13.80;99.90;;;;;;4851492;29;20045;-94
2023/09/17 04:15:08;;;;;;;;;;;13.90;99.90;;;;;;4851549;29;20095;-94
2023/09/17 04:17:34;;;;;;;19.80;17.83;;;13.90;99.90;;;;;;4866533;29;19920;-95
2023/09/17 04:20:00;;;;;;;18.40;16.60;;;14.00;99.90;;;;;;4836356;29;20047;-95
2023/09/17 04:22:26;;;;;;;19.13;17.15;;;14.00;99.90;;;;;;4866735;29;20045;-94
2023/09/17 04:24:52;;;;;;;17.27;15.45;;;14.00;99.90;;;;;;4870440;29;20057;-94
2023/09/17 04:27:18;;;;;;;19.30;16.40;;;14.00;99.90;;;;;;4840160;29;20044;-95
2023/09/17 04:29:44;;;;;;;18.77;16.83;;;14.00;99.90;;;;;;4855624;29;20506;-95
2023/09/17 04:32:10;;;;;;;16.27;14.68;;;14.00;99.90;;;;;;4855040;29;20037;-95
2023/09/17 04:34:35;;;;;;;16.13;14.48;;;14.00;99.90;;;;;;4839932;29;20044;-94
2023/09/17 04:37:01;;;;;;;16.85;15.13;;;14.00;99.90;;;;;;4855636;29;20048;-95
2023/09/17 04:39:27;;;;;;;17.27;15.32;;;14.00;99.90;;;;;;4854788;29;20101;-95
2023/09/17 04:41:53;;;;;;;16.33;14.63;;;14.00;99.90;;;;;;4854830;29;20045;-95
2023/09/17 04:44:19;;;;;;;16.55;14.57;;;14.00;99.90;;;;;;4870296;29;20080;-94
2023/09/17 04:46:45;;;;;;;17.85;15.95;;;13.90;99.90;;;;;;4855078;29;20514;-95
2023/09/17 04:49:11;;;;;;;20.88;17.17;;;13.90;99.90;;;;;;4854764;29;20049;-96
2023/09/17 04:51:37;;;;;;;18.13;16.23;;;13.90;99.90;;;;;;4870133;29;20045;-95
2023/09/17 04:54:03;;;;;;;18.23;16.38;;;13.90;99.90;;;;;;4870418;29;20476;-95
2023/09/17 04:56:30;;;;;;;19.83;17.58;;;13.90;99.90;;;;;;4870837;29;20104;-94
2023/09/17 04:59:00;;;;;;;20.20;18.10;;;14.00;99.90;;;;;;4854881;29;20560;-95
2023/09/17 05:01:27;;;;;;;21.98;17.80;;;14.00;99.90;;;;;;4854496;29;20045;-96
2023/09/17 05:03:53;;;;;;;21.08;18.85;;;14.00;99.90;;;;;;4854793;29;20052;-94
2023/09/17 05:06:19;;;;;;;22.88;20.35;;;14.00;99.90;;;;;;4869643;29;20072;-95
2023/09/17 05:08:45;;;;;;;22.60;19.55;;;14.00;99.90;;;;;;4854876;29;20052;-96
2023/09/17 05:11:11;;;;;;;20.90;18.70;;;14.00;99.90;;;;;;4839865;29;20049;-96
2023/09/17 05:13:37;;;;;;;20.20;18.08;;;14.10;99.90;;;;;;4854349;29;20044;-94
2023/09/17 05:16:03;;;;;;;19.63;17.42;;;14.10;99.90;;;;;;4854356;29;20040;-96
2023/09/17 05:18:29;;;;;;;23.13;18.98;;;14.10;99.90;;;;;;4854156;29;20113;-94
2023/09/17 05:20:55;;;;;;;19.67;17.50;;;14.10;99.90;;;;;;4869571;29;20044;-96
2023/09/17 05:23:21;;;;;;;20.52;18.33;;;14.20;99.90;;;;;;4854108;29;20046;-95
2023/09/17 05:25:47;;;;;;;22.85;17.25;;;14.20;99.90;;;;;;4869588;29;20055;-94
2023/09/17 05:28:13;;;;;;;17.92;16.08;;;14.20;99.90;;;;;;4853870;29;20135;-95
2023/09/17 05:30:39;;;;;;;19.17;17.17;;;14.20;99.90;;;;;;4853843;29;20045;-95
2023/09/17 05:33:05;;;;;;;21.23;18.55;;;14.20;99.90;;;;;;4854870;29;20100;-94
2023/09/17 05:35:32;;;;;;;21.27;19.05;;;14.20;99.90;;;;;;4853335;29;20036;-95
2023/09/17 05:37:58;;;;;;;19.38;16.77;;;14.30;99.90;;;;;;4869536;29;20040;-95
2023/09/17 05:40:23;;;;;;;18.95;16.98;;;14.30;99.90;;;;;;4853967;29;20105;-94
2023/09/17 05:42:49;;;;;;;20.83;18.60;;;14.30;99.90;;;;;;4853968;29;20387;-94
2023/09/17 05:45:15;;;;;;;22.70;19.52;;;14.30;99.90;;;;;;4869390;29;20040;-95
2023/09/17 05:47:42;;;;;;;25.85;22.23;;;14.40;99.90;;;;;;4853967;29;20047;-95
2023/09/17 05:50:12;;;;;;;23.30;20.67;;;14.40;99.90;;;;;;4838425;29;20066;-94
2023/09/17 05:52:37;;;;;;;25.77;21.48;;;14.40;99.90;;;;;;4838651;29;20100;-95
2023/09/17 05:55:06;;;;;;;22.27;19.85;;;14.50;99.90;;;;;;4838529;29;20048;-96
2023/09/17 05:57:32;;;;;;;23.13;20.73;;;14.60;99.90;;;;;;4869298;29;20051;-96
2023/09/17 06:00:03;;;;;;;23.33;20.80;;;14.50;99.90;;;;;;4870033;29;20044;-95
2023/09/17 06:02:29;;;;;;;21.80;19.23;;;14.50;99.90;;;;;;4870588;29;20044;-94
2023/09/17 06:04:55;;;;;;;22.02;19.73;;;14.50;99.90;;;;;;4872000;29;20516;-96
2023/09/17 06:07:22;;;;;;;22.95;20.65;;;14.50;99.90;;;;;;4869226;29;20048;-94
2023/09/17 06:09:48;;;;;;;25.20;19.17;;;14.50;99.90;;;;;;4868890;29;20040;-95
2023/09/17 06:12:15;;;;;;;22.65;20.17;;;14.60;99.90;;;;;;4869182;29;20041;-95
2023/09/17 06:14:42;;;;;;;22.75;20.42;;;14.60;99.90;;;;;;4868897;29;20044;-95
2023/09/17 06:17:08;;;;;;;23.15;19.10;;;;;;;;;;4869284;29;20047;-96
2023/09/17 06:19:36;;;;;;;23.23;20.83;;;14.70;99.90;;;;;;4872298;29;20104;-96
2023/09/17 06:22:02;;;;;;;24.92;22.33;;;14.80;99.90;;;;;;4876290;29;20056;-96
2023/09/17 06:24:38;;;;;;;26.45;22.70;;;14.60;99.90;;;;;;4873313;29;20081;-96
2023/09/17 06:27:04;;;;;;;26.90;23.25;;;15.00;99.90;;;;;;4874982;29;20135;-95
2023/09/17 06:29:31;;;;;;;27.00;24.00;;;;;;;;;;4870775;29;20068;-95
2023/09/17 06:31:57;;;;;;;26.80;24.00;;;15.30;99.90;;;;;;4869659;29;20500;-95
2023/09/17 06:34:23;;;;;;;26.08;22.52;;;14.70;99.90;;;;;;4856560;29;20465;-95
2023/09/17 06:36:48;;;;;;;26.00;22.50;;;15.40;99.90;;;;;;4869993;29;20100;-95
2023/09/17 06:39:14;;;;;;;22.40;20.10;;;15.50;99.90;;;;;;4854073;29;20098;-96
2023/09/17 06:41:40;;;;;;;25.92;23.23;;;15.50;99.90;;;;;;4870532;29;20052;-95
2023/09/17 06:44:09;;;;;;;24.55;21.95;;;15.60;99.90;;;;;;4854573;29;20040;-95
2023/09/17 06:46:38;;;;;;;23.52;20.83;;;14.20;99.90;;;;;;4854168;29;20048;-95
2023/09/17 06:49:04;;;;;;;25.77;23.05;;;16.20;99.90;;;;;;4853900;29;20048;-95
2023/09/17 06:51:29;;;;;;;25.73;22.92;;;15.80;99.90;;;;;;4858984;29;20481;-93
2023/09/17 06:53:55;;;;;;;25.85;23.05;;;15.90;99.90;;;;;;4885475;29;20052;-93
2023/09/17 06:56:24;;;;;;;24.52;22.02;;;16.30;99.90;;;;;;4869673;29;20036;-94
2023/09/17 06:58:58;;;;;;;25.67;22.90;;;16.30;99.90;;;;;;4869986;29;20066;-96
2023/09/17 07:01:24;;;;;;;25.40;22.65;;;16.60;99.90;;;;;;4870610;29;20060;-95
2023/09/17 07:03:52;;;;;;;23.67;21.25;;;16.20;99.90;;;;;;4870283;29;20382;-95
2023/09/17 07:06:21;;;;;;;26.10;23.30;;;16.20;99.90;;;;;;4871610;29;20076;-94
2023/09/17 07:08:47;;;;;;;27.88;24.88;;;16.50;99.90;;;;;;4869249;29;20401;-92
2023/09/17 07:11:13;;;;;;;25.70;23.13;;;16.40;99.90;;;;;;4836790;29;20040;-96
2023/09/17 07:13:41;;;;;;;26.83;24.20;;;16.50;99.90;;;;;;4841230;29;20070;-96
2023/09/17 07:16:08;;;;;;;25.10;22.35;;;16.60;99.90;;;;;;4840133;29;20029;-96
2023/09/17 07:18:44;;;;;;;25.17;22.60;;;16.60;99.90;;;;;;4851943;29;20128;-95
2023/09/17 07:21:13;;;;;;;25.33;22.85;;;17.50;99.90;;;;;;4862544;29;20033;-94
2023/09/17 07:23:42;;;;;;;25.58;23.08;;;17.10;99.90;;;;;;4852890;29;20043;-94
2023/09/17 07:26:09;;;;;;;24.85;22.20;;;16.90;99.90;;;;;;4874060;29;20400;-93
2023/09/17 07:28:36;;;;;;;25.08;22.50;;;17.00;99.90;;;;;;4862807;29;20041;-91
2023/09/17 07:31:04;;;;;;;25.63;23.08;;;17.00;99.90;;;;;;4849265;29;20047;-92
2023/09/17 07:33:30;;;;;;;25.95;23.35;;;17.10;99.90;;;;;;4878745;29;20036;-89
2023/09/17 07:35:56;;;;;;;23.90;21.48;;;17.10;99.90;;;;;;4859853;29;20068;-93
2023/09/17 07:38:22;;;;;;;24.52;22.10;;;17.20;99.90;;;;;;4872421;29;20040;-90
2023/09/17 07:40:48;;;;;;;23.45;21.25;;;17.20;99.90;;;;;;4880778;29;20048;-91
2023/09/17 07:43:17;;;;;;;22.50;20.23;;;17.30;99.90;;;;;;4847801;29;20132;-93
2023/09/17 07:45:42;;;;;;;20.98;18.90;;;17.40;99.90;;;;;;4840174;29;20052;-94
2023/09/17 07:48:08;;;;;;;21.83;19.60;;;17.40;99.90;;;;;;4844437;29;20053;-93
2023/09/17 07:50:34;;;;;;;21.00;18.88;;;17.50;99.90;;;;;;4867443;29;20136;-93
2023/09/17 07:53:02;;;;;;;21.13;18.88;;;17.50;99.90;;;;;;4852200;29;20096;-93
2023/09/17 07:55:29;;;;;;;19.48;17.40;;;17.60;99.90;;;;;;4850965;29;20044;-92
2023/09/17 07:57:55;;;;;;;19.77;17.88;;;17.60;99.90;;;;;;4863145;29;20544;-91
2023/09/17 08:00:21;;;;;;;17.27;15.57;;;17.70;99.90;;;;;;4865158;29;20044;-89
2023/09/17 08:02:48;;;;;;;17.40;15.75;;;17.70;99.90;;;;;;4865372;29;20049;-92
2023/09/17 08:05:14;;;;;;;17.63;15.77;;;17.80;99.90;;;;;;4863850;29;20056;-91
2023/09/17 08:07:41;;;;;;;17.48;15.77;;;17.60;99.90;;;;;;4850212;29;20492;-93
2023/09/17 08:10:08;;;;;;;17.90;15.95;;;17.80;99.90;;;;;;4870583;29;20124;-94
2023/09/17 08:12:34;;;;;;;17.00;15.23;;;17.80;99.90;;;;;;4864881;29;20374;-89
2023/09/17 08:15:00;;;;;;;17.85;16.15;;;17.80;99.90;;;;;;4843013;29;20055;-94
2023/09/17 08:17:26;;;;;;;16.20;14.73;;;17.90;99.90;;;;;;4872680;29;20051;-92
2023/09/17 08:19:52;;;;;;;17.92;16.27;;;17.80;99.90;;;;;;4881304;29;20044;-94
2023/09/17 08:22:27;;;;;;;18.50;16.55;;;17.90;99.90;;;;;;4881333;29;20410;-95
2023/09/17 08:24:52;;;;;;;17.75;16.00;;;17.90;99.90;;;;;;4867479;29;20139;-93
2023/09/17 08:27:19;;;;;;;18.60;16.90;;;18.20;99.90;;;;;;4858254;29;20127;-91
2023/09/17 08:29:45;;;;;;;17.88;16.17;;;18.30;99.90;;;;;;4851843;29;20128;-89
2023/09/17 08:32:12;;;;;;;18.08;16.38;;;18.50;99.90;;;;;;4873763;29;20082;-91
2023/09/17 08:34:37;;;;;;;18.83;17.02;;;18.60;99.90;;;;;;4875592;29;20044;-91
2023/09/17 08:37:07;;;;;;;18.50;16.60;;;18.60;99.90;;;;;;4857243;29;20049;-95
2023/09/17 08:39:33;;;;;;;19.85;17.95;;;18.60;99.90;;;;;;4857458;29;20519;-92
2023/09/17 08:42:00;;;;;;;18.65;16.95;;;18.70;99.90;;;;;;4866263;29;20044;-91
2023/09/17 08:44:29;;;;;;;18.40;16.60;;;18.60;99.90;;;;;;4861361;29;20051;-93
2023/09/17 08:46:57;;;;;;;19.70;17.80;;;18.60;99.90;;;;;;4861637;29;20049;-91
2023/09/17 08:49:23;;;;;;;19.10;17.20;;;18.50;99.90;;;;;;4848077;29;20108;-93
2023/09/17 08:51:53;;;;;;;19.88;17.88;;;18.50;99.90;;;;;;4868932;29;20041;-95
2023/09/17 08:54:25;;;;;;;18.63;16.83;;;18.50;99.90;;;;;;4867677;29;20055;-90
2023/09/17 08:56:57;;;;;;;19.70;17.90;;;18.60;99.90;;;;;;4888363;29;20048;-91
2023/09/17 08:59:29;;;;;;;17.02;15.32;;;18.50;99.90;;;;;;4871924;29;20060;-89
2023/09/17 09:02:02;;;;;;;18.83;16.88;;;18.50;99.90;;;;;;4876858;29;20111;-96
2023/09/17 09:04:30;;;;;;;17.38;15.75;;;18.50;99.90;;;;;;4867262;29;20080;-92
2023/09/17 09:06:56;;;;;;;16.67;14.95;;;18.50;99.90;;;;;;4872476;29;20052;-92
2023/09/17 09:09:23;;;;;;;16.30;14.80;;;18.50;99.90;;;;;;4869487;29;20492;-91
2023/09/17 09:11:49;;;;;;;15.45;13.88;;;18.50;99.90;;;;;;4859156;29;20119;-88
2023/09/17 09:14:16;;;;;;;15.48;13.90;;;18.50;99.90;;;;;;4879968;29;20041;-93
2023/09/17 09:16:44;;;;;;;14.23;12.82;;;18.60;99.90;;;;;;4860274;29;20485;-91
2023/09/17 09:19:10;;;;;;;13.45;12.05;;;18.70;99.90;;;;;;4880291;29;20110;-91
2023/09/17 09:21:36;;;;;;;15.07;13.57;;;18.70;99.90;;;;;;4859712;29;20127;-93
2023/09/17 09:24:05;;;;;;;14.55;13.05;;;18.70;99.90;;;;;;4865388;29;20596;-91
2023/09/17 09:26:36;;;;;;;14.25;12.88;;;18.60;99.90;;;;;;4859958;29;20047;-88
2023/09/17 09:29:04;;;;;;;14.77;13.27;;;18.60;99.90;;;;;;4863291;29;20578;-90
2023/09/17 09:31:31;;;;;;;14.63;13.18;;;18.60;99.90;;;;;;4881627;29;20776;-93
2023/09/17 09:33:59;;;;;;;13.02;11.68;;;18.70;99.90;;;;;;4852984;29;20044;-94
2023/09/17 09:36:29;;;;;;;14.52;13.10;;;18.80;99.90;;;;;;4874819;29;20036;-93
2023/09/17 09:38:56;;;;;;;14.35;12.85;;;18.80;99.90;;;;;;4855808;29;20131;-90
2023/09/17 09:41:24;;;;;;;15.02;12.38;;;18.80;99.90;;;;;;4884206;29;20386;-89
2023/09/17 09:43:51;;;;;;;13.70;12.40;;;18.80;99.90;;;;;;4869727;29;20057;-90
2023/09/17 09:46:17;;;;;;;14.32;12.93;;;18.90;99.90;;;;;;4847379;29;20509;-95
2023/09/17 09:48:45;;;;;;;13.45;12.05;;;18.90;99.90;;;;;;4843332;29;20072;-94
2023/09/17 09:51:15;;;;;;;12.75;11.55;;;18.90;99.90;;;;;;4823357;29;20045;-95
2023/09/17 09:53:41;;;;;;;12.52;11.23;;;19.00;99.90;;;;;;4851278;29;20045;-93
2023/09/17 09:56:07;;;;;;;12.23;11.13;;;19.00;99.90;;;;;;4853529;29;20097;-95
2023/09/17 09:58:33;;;;;;;13.27;11.77;;;19.00;99.90;;;;;;4853961;29;20041;-92
2023/09/17 10:01:03;;;;;;;11.60;10.50;;;19.00;99.90;;;;;;4855628;29;20124;-90
2023/09/17 10:03:30;;;;;;;11.50;10.30;;;19.00;99.90;;;;;;4867497;29;20052;-94
2023/09/17 10:06:06;;;;;;;11.32;10.15;;;19.10;99.90;;;;;;4850010;29;20057;-92
2023/09/17 10:08:40;;;;;;;13.13;10.48;;;19.10;99.90;;;;;;4858798;29;20052;-95
2023/09/17 10:11:09;;;;;;;13.18;9.88;;;19.20;99.90;;;;;;4846210;29;20112;-95
2023/09/17 10:13:35;;;;;;;10.57;9.52;;;19.20;99.90;;;;;;4867515;29;20040;-95
2023/09/17 10:16:07;;;;;;;11.07;10.00;;;19.20;99.90;;;;;;4874605;29;20041;-95
2023/09/17 10:18:36;;;;;;;12.75;10.02;;;19.30;99.90;;;;;;4852290;29;20176;-94
2023/09/17 10:21:02;;;;;;;10.40;9.40;;;19.10;99.90;;;;;;4838707;29;20071;-93
2023/09/17 10:23:30;;;;;;;11.37;10.07;;;;;;;;;;4871229;29;20071;-94
2023/09/17 10:25:59;;;;;;;11.00;9.93;;;19.20;99.90;;;;;;4860150;29;20847;-91
2023/09/17 10:28:26;;;;;;;11.38;9.23;;;19.20;99.90;;;;;;4858652;29;20048;-91
2023/09/17 10:30:52;;;;;;;11.40;9.85;;;19.20;99.90;;;;;;4868710;29;20072;-90
2023/09/17 10:33:18;;;;;;;10.95;9.93;;;19.20;99.90;;;;;;4837948;29;20742;-92
2023/09/17 10:35:45;;;;;;;12.25;10.93;;;19.20;99.90;;;;;;4851465;29;20123;-93
2023/09/17 10:38:12;;;;;;;11.70;10.50;;;19.20;99.90;;;;;;4865044;29;20471;-91
2023/09/17 10:40:38;;;;;;;10.68;9.65;;;19.20;99.90;;;;;;4867843;29;20513;-94
2023/09/17 10:43:07;;;;;;;12.63;10.63;;;19.20;99.90;;;;;;4835149;29;20049;-94
2023/09/17 10:45:37;;;;;;;11.25;10.10;;;19.20;99.90;;;;;;4851693;29;20052;-95
2023/09/17 10:48:06;;;;;;;11.35;10.18;;;19.20;99.90;;;;;;4855380;29;20071;-94
2023/09/17 10:50:36;;;;;;;11.13;10.02;;;19.20;99.90;;;;;;4841009;29;20052;-94
2023/09/17 10:53:03;;;;;;;11.48;10.38;;;19.20;99.90;;;;;;4840110;29;20048;-93
2023/09/17 10:55:34;;;;;;;10.45;9.45;;;19.20;99.90;;;;;;4848756;29;20530;-90
2023/09/17 10:58:14;;;;;;;10.73;9.63;;;19.10;99.90;;;;;;4879429;29;20044;-91
2023/09/17 11:00:42;;;;;;;11.07;9.88;;;18.90;99.90;;;;;;4864326;29;20052;-89
2023/09/17 11:03:12;;;;;;;10.52;9.57;;;19.20;99.90;;;;;;4850891;29;20505;-93
2023/09/17 11:05:39;;;;;;;10.70;9.70;;;19.20;99.90;;;;;;4869301;29;20063;-92
2023/09/17 11:08:07;;;;;;;10.65;9.55;;;19.20;99.90;;;;;;4838047;29;20048;-90
2023/09/17 11:10:34;;;;;;;10.05;9.15;;;19.20;99.90;;;;;;4866597;29;20048;-90
2023/09/17 11:13:00;;;;;;;;;;;19.20;99.90;;;;;;4842872;29;20040;-90
2023/09/17 11:15:26;;;;;;;11.10;10.00;;;19.20;99.90;;;;;;4859296;29;19981;-89
2023/09/17 11:17:58;;;;;;;10.80;9.77;;;19.10;99.90;;;;;;4831069;29;20061;-91
2023/09/17 11:20:23;;;;;;;10.70;9.70;;;19.00;99.90;;;;;;4855848;29;20048;-94
2023/09/17 11:22:52;;;;;;;13.25;11.95;;;18.90;99.90;;;;;;4849581;29;20785;-90
2023/09/17 11:25:39;;;;;;;12.05;10.85;;;18.80;99.90;;;;;;4827626;29;20103;-89
2023/09/17 11:28:13;;;;;;;11.73;10.57;;;18.80;99.90;;;;;;4864362;29;20049;-91
2023/09/17 11:30:59;;;;;;;12.38;11.18;;;18.80;99.90;;;;;;4864561;29;20136;-92
2023/09/17 11:33:29;;;;;;;12.70;11.60;;;19.00;99.90;;;;;;4860381;29;20052;-92
2023/09/17 11:35:56;;;;;;;12.75;11.60;;;19.20;99.90;;;;;;4857426;29;20045;-90
2023/09/17 11:38:26;;;;;;;13.60;12.30;;;19.50;99.90;;;;;;4862815;29;20052;-91
2023/09/17 11:41:09;;;;;;;13.50;12.13;;;19.60;99.90;;;;;;4862223;29;20049;-88
2023/09/17 11:43:39;;;;;;;12.50;11.35;;;19.60;99.90;;;;;;4870235;29;20037;-89
2023/09/17 11:46:08;;;;;;;12.00;10.90;;;19.50;99.90;;;;;;4865876;29;20050;-88
2023/09/17 11:48:43;;;;;;;12.40;11.18;;;19.30;99.90;;;;;;4856557;29;20045;-90
2023/09/17 11:51:20;;;;;;;12.60;11.50;;;19.40;99.90;;;;;;4865040;29;20112;-89
2023/09/17 11:54:04;;;;;;;11.82;10.65;;;19.40;99.90;;;;;;4865077;29;20102;-90
2023/09/17 11:56:32;;;;;;;12.27;11.07;;;19.30;99.90;;;;;;4863872;29;20048;-90
2023/09/17 11:59:03;;;;;;;12.27;11.13;;;19.30;99.90;;;;;;4852510;29;20049;-90
2023/09/17 12:01:32;;;;;;;12.82;11.60;;;19.20;99.90;;;;;;4850916;29;20427;-88
2023/09/17 12:03:58;;;;;;;12.50;11.30;;;19.20;99.90;;;;;;4866005;29;20556;-93
2023/09/17 12:06:26;;;;;;;12.40;11.30;;;19.20;99.90;;;;;;4859957;29;20108;-91
2023/09/17 12:08:53;;;;;;;12.77;11.57;;;;;;;;;;4856067;29;20481;-91
2023/09/17 12:11:22;;;;;;;12.97;11.63;;;19.20;99.90;;;;;;4863775;29;20040;-92
2023/09/17 12:13:53;;;;;;;12.88;11.52;;;19.20;99.90;;;;;;4833935;29;20401;-88
2023/09/17 12:16:27;;;;;;;13.65;12.15;;;19.20;99.90;;;;;;4856550;29;20563;-90
2023/09/17 12:18:55;;;;;;;12.68;11.38;;;19.00;99.90;;;;;;4864414;29;20081;-90
2023/09/17 12:21:22;;;;;;;12.88;11.68;;;19.30;99.90;;;;;;4863395;29;20472;-92
2023/09/17 12:23:56;;;;;;;14.18;12.00;;;19.30;99.90;;;;;;4863172;29;20108;-93
2023/09/17 12:26:35;;;;;;;13.07;11.85;;;19.40;99.90;;;;;;4860902;29;20044;-95
2023/09/17 12:29:07;;;;;;;12.90;11.60;;;19.50;99.90;;;;;;4883914;29;20159;-93
2023/09/17 12:31:36;;;;;;;12.75;11.57;;;19.60;99.90;;;;;;4867358;29;20041;-93
2023/09/17 12:34:06;;;;;;;13.02;11.73;;;19.90;99.90;;;;;;4864607;29;20083;-94
2023/09/17 12:36:32;;;;;;;11.77;10.70;;;20.10;99.90;;;;;;4864725;29;20484;-91